createdAt,value
2023-02-27T00:01:23.311Z,-0.79
2023-02-27T00:04:26.389Z,-0.88
2023-02-27T00:07:29.343Z,-0.90
2023-02-27T00:10:32.705Z,-1.03
2023-02-27T00:13:37.267Z,-1.04
2023-02-27T00:16:40.379Z,-0.97
2023-02-27T00:19:43.206Z,-0.99
2023-02-27T00:22:46.634Z,-1.06
2023-02-27T00:25:50.109Z,-1.02
2023-02-27T00:28:53.916Z,-1.03
2023-02-27T00:31:58.454Z,-1.09
2023-02-27T00:35:02.422Z,-0.86
2023-02-27T00:38:05.392Z,-0.83
2023-02-27T00:41:08.842Z,-0.83
2023-02-27T00:44:11.543Z,-0.91
2023-02-27T00:47:14.624Z,-0.86
2023-02-27T00:50:17.871Z,-0.76
2023-02-27T00:53:21.063Z,-0.79
2023-02-27T00:56:23.940Z,-0.71
2023-02-27T00:59:27.259Z,-0.78
2023-02-27T01:02:30.513Z,-0.77
2023-02-27T01:05:33.658Z,-0.68
2023-02-27T01:08:36.487Z,-0.73
2023-02-27T01:11:40.762Z,-0.76
2023-02-27T01:14:44.460Z,-0.72
2023-02-27T01:17:48.123Z,-0.70
2023-02-27T05:47:20.120Z,-0.59
2023-02-27T05:50:30.884Z,-0.59
2023-02-27T05:53:38.224Z,-0.42
2023-02-27T05:56:46.517Z,-0.48
2023-02-27T06:00:21.300Z,-0.53
2023-02-27T06:03:25.872Z,-0.53
2023-02-27T06:06:30.674Z,-0.42
2023-02-27T06:09:33.954Z,-0.32
2023-02-27T06:12:36.741Z,-0.52
2023-02-27T06:16:17.226Z,-0.19
2023-02-27T06:19:39.827Z,-0.30
2023-02-27T06:23:42.741Z,-0.26
2023-02-27T06:27:10.246Z,-0.28
2023-02-27T06:30:34.340Z,0.15
2023-02-27T16:40:37.673Z,1.71
2023-02-27T16:43:41.293Z,1.70
2023-02-27T16:46:44.635Z,1.63
2023-02-27T16:50:47.695Z,1.40
2023-02-27T16:53:56.778Z,1.08
2023-02-27T16:57:04.353Z,1.10
2023-02-27T17:00:10.852Z,0.55
2023-02-27T17:03:30.722Z,0.08
2023-02-27T17:06:51.948Z,0.16
2023-02-27T17:10:00.561Z,0.17
2023-02-27T17:13:23.281Z,0.14
2023-02-27T17:17:06.995Z,0.04
2023-02-27T17:20:12.314Z,0.05
2023-02-27T17:23:21.480Z,-0.24
2023-02-27T17:26:28.953Z,-0.49
2023-02-27T17:29:38.598Z,-0.75
2023-02-27T17:32:41.833Z,-0.83
2023-02-27T17:35:44.983Z,-0.58
2023-02-27T17:39:08.027Z,-0.64
2023-02-27T17:42:18.608Z,-0.68
2023-02-27T17:45:21.868Z,-0.70
2023-02-27T17:48:29.039Z,-0.75
2023-02-27T17:51:32.350Z,-0.69
2023-02-27T17:55:06.592Z,-0.56
2023-02-27T17:58:10.220Z,-0.53
2023-02-27T18:02:14.544Z,-0.63
2023-02-27T18:05:18.221Z,-0.27
2023-02-27T18:08:20.942Z,-0.54
2023-02-27T18:11:24.068Z,-0.55
2023-02-27T18:14:26.854Z,-0.60
2023-02-27T18:17:29.948Z,-0.41
2023-02-27T18:20:33.285Z,-0.42
2023-02-27T18:23:36.991Z,-0.44
2023-02-27T18:26:40.152Z,-0.44
2023-02-27T18:29:49.412Z,-0.51
2023-02-27T18:32:57.977Z,-0.77
2023-02-27T18:36:01.195Z,-0.97
2023-02-27T18:39:05.148Z,-1.02
2023-02-27T18:42:08.510Z,-1.12
2023-02-27T18:45:43.167Z,-1.26
2023-02-27T18:48:46.804Z,-1.40
2023-02-27T18:51:49.753Z,-1.31
2023-02-27T18:54:55.895Z,-1.44
2023-02-27T18:57:58.671Z,-1.49
2023-02-27T19:01:07.426Z,-1.50
2023-02-27T19:04:10.577Z,-1.48
2023-02-27T19:07:14.673Z,-1.64
2023-02-27T19:10:17.493Z,-1.63
2023-02-27T19:13:20.578Z,-1.59
2023-02-27T19:16:23.829Z,-1.60
2023-02-27T19:19:30.169Z,-1.64
2023-02-27T19:22:34.813Z,-1.82
2023-02-27T19:25:38.048Z,-1.63
2023-02-27T19:28:43.949Z,-1.73
2023-02-27T19:31:47.677Z,-1.85
2023-02-27T19:34:50.855Z,-1.29
2023-02-27T19:37:58.662Z,-1.24
2023-02-27T19:41:07.437Z,-1.30
2023-02-27T19:44:51.026Z,-1.50
2023-02-27T19:48:18.924Z,-1.42
2023-02-27T19:51:22.463Z,-1.11
2023-02-27T19:54:25.611Z,-1.10
2023-02-27T19:57:28.790Z,-1.15
2023-02-27T20:00:32.362Z,-0.95
2023-02-27T20:03:36.468Z,-0.91
2023-02-27T20:07:10.055Z,-1.09
2023-02-27T20:10:13.608Z,-0.92
2023-02-27T20:13:16.691Z,-1.17
2023-02-27T20:16:40.576Z,-1.22
2023-02-27T20:20:06.079Z,-1.14
2023-02-27T20:23:30.888Z,-1.28
2023-02-27T20:26:38.958Z,-1.22
2023-02-27T20:30:02.493Z,-1.13
2023-02-27T20:33:07.282Z,-1.18
2023-02-27T20:36:51.921Z,-1.31
2023-02-27T20:39:54.804Z,-1.40
2023-02-27T20:42:58.286Z,-1.35
2023-02-27T22:40:51.278Z,-1.50
2023-02-27T22:43:55.334Z,-1.43
2023-02-27T22:46:58.096Z,-1.42
2023-02-27T22:50:01.510Z,-1.36
2023-02-27T22:53:04.215Z,-1.37
2023-02-27T22:56:09.979Z,-1.27
2023-02-27T22:59:12.849Z,-1.14
2023-02-27T23:02:17.373Z,-1.25
2023-02-27T23:05:20.189Z,-1.15
2023-02-27T23:08:23.240Z,-1.01
2023-02-27T23:11:26.590Z,-1.26
2023-02-27T23:14:29.951Z,-1.21
2023-02-27T23:17:36.113Z,-0.99
2023-02-27T23:20:40.501Z,-0.94
2023-02-27T23:23:43.432Z,-0.97
2023-02-27T23:26:49.828Z,-1.07
2023-02-27T23:29:52.601Z,-1.05
2023-02-27T23:32:56.863Z,-0.95
2023-02-27T23:36:00.956Z,-1.16
2023-02-27T23:39:06.180Z,-0.97
2023-02-27T23:42:09.263Z,-1.09
2023-02-27T23:45:25.026Z,-1.22
2023-02-27T23:48:28.008Z,-1.19
2023-02-27T23:51:31.550Z,-1.16
2023-02-27T23:54:34.792Z,-1.20
2023-02-27T23:57:37.850Z,-1.12
